createdAt,value
2019-04-05T00:03:29.546Z,9.43
2019-04-05T00:08:30.629Z,8.83
2019-04-05T00:13:31.697Z,8.03
2019-04-05T00:18:32.782Z,9.40
2019-04-05T00:23:33.867Z,8.43
2019-04-05T00:28:34.938Z,9.23
2019-04-05T00:33:36.023Z,11.77
2019-04-05T00:38:37.091Z,8.53
2019-04-05T00:43:38.169Z,7.70
2019-04-05T00:48:39.241Z,8.20
2019-04-05T00:53:40.402Z,9.00
2019-04-05T00:58:41.477Z,9.33
2019-04-05T01:03:42.661Z,7.57
2019-04-05T01:08:43.956Z,9.50
2019-04-05T01:13:45.114Z,7.43
2019-04-05T01:18:46.204Z,7.43
2019-04-05T01:23:47.798Z,8.80
2019-04-05T01:28:48.882Z,7.83
2019-04-05T01:33:50.053Z,8.00
2019-04-05T01:38:51.130Z,9.30
2019-04-05T01:43:52.189Z,7.40
2019-04-05T01:48:53.261Z,7.40
2019-04-05T01:53:54.337Z,7.80
2019-04-05T01:58:55.433Z,6.80
2019-04-05T02:03:56.617Z,7.70
2019-04-05T02:08:57.715Z,7.33
2019-04-05T02:13:59.020Z,7.23
2019-04-05T02:19:00.237Z,6.90
2019-04-05T02:24:01.836Z,7.63
2019-04-05T02:29:03.134Z,7.57
2019-04-05T02:34:04.569Z,7.37
2019-04-05T02:39:06.478Z,8.50
2019-04-05T02:44:09.299Z,7.97
2019-04-05T02:49:11.489Z,7.93
2019-04-05T02:54:13.794Z,8.87
2019-04-05T02:59:16.484Z,9.27
2019-04-05T03:04:17.779Z,8.67
2019-04-05T03:09:19.269Z,8.00
2019-04-05T03:14:21.292Z,10.07
2019-04-05T03:19:26.208Z,9.27
2019-04-05T03:24:30.413Z,11.20
2019-04-05T03:29:32.704Z,7.13
2019-04-05T03:34:34.296Z,7.77
2019-04-05T03:39:35.803Z,6.63
2019-04-05T03:44:37.320Z,6.53
2019-04-05T03:49:38.939Z,6.03
2019-04-05T03:54:40.316Z,8.10
2019-04-05T03:59:41.802Z,6.97
2019-04-05T04:04:43.090Z,6.43
2019-04-05T04:09:44.279Z,7.27
2019-04-05T04:14:45.496Z,9.37
2019-04-05T04:19:46.713Z,11.50
2019-04-05T04:24:47.999Z,11.40
2019-04-05T04:29:49.191Z,12.00
2019-04-05T04:34:50.378Z,14.13
2019-04-05T04:39:51.893Z,13.23
2019-04-05T04:44:53.252Z,13.53
2019-04-05T04:49:55.843Z,11.57
2019-04-05T04:54:57.155Z,13.07
2019-04-05T04:59:58.443Z,12.57
2019-04-05T05:04:59.972Z,12.37
2019-04-05T05:10:03.225Z,11.87
2019-04-05T05:15:05.424Z,12.50
2019-04-05T05:20:08.140Z,11.33
2019-04-05T05:25:10.234Z,13.98
2019-04-05T05:30:11.723Z,11.97
2019-04-05T05:35:13.038Z,11.93
2019-04-05T05:40:14.529Z,12.57
2019-04-05T05:45:15.752Z,11.97
2019-04-05T05:50:17.251Z,13.03
2019-04-05T05:55:18.343Z,11.93
2019-04-05T06:00:21.540Z,12.17
2019-04-05T06:05:22.653Z,10.90
2019-04-05T06:10:23.748Z,11.90
2019-04-05T06:15:24.846Z,12.50
2019-04-05T06:20:26.164Z,12.73
2019-04-05T06:25:27.259Z,10.57
2019-04-05T06:30:28.897Z,12.07
2019-04-05T06:35:30.268Z,11.93
2019-04-05T06:40:40.656Z,12.40
2019-04-05T06:45:34.371Z,12.83
2019-04-05T06:50:35.463Z,11.40
2019-04-05T06:55:36.552Z,10.13
2019-04-05T07:00:37.639Z,11.63
2019-04-05T07:05:38.933Z,13.83
2019-04-05T07:10:40.031Z,11.73
2019-04-05T07:15:41.178Z,17.57
2019-04-05T07:20:42.383Z,17.77
2019-04-05T07:25:43.584Z,19.47
2019-04-05T07:30:44.710Z,18.37
2019-04-05T07:35:45.800Z,14.63
2019-04-05T07:40:46.895Z,15.33
2019-04-05T07:45:47.994Z,16.60
2019-04-05T07:50:49.097Z,14.67
2019-04-05T07:55:50.197Z,16.77
2019-04-05T08:00:54.936Z,16.47
2019-04-05T08:05:56.027Z,16.10
2019-04-05T08:10:57.535Z,19.10
2019-04-05T08:16:01.197Z,19.20
2019-04-05T08:21:01.765Z,17.10
2019-04-05T08:26:03.744Z,17.33
2019-04-05T08:31:04.940Z,18.70
2019-04-05T08:36:06.034Z,18.40
2019-04-05T08:41:07.349Z,19.50
2019-04-05T08:46:08.756Z,18.20
2019-04-05T08:51:09.854Z,19.57
2019-04-05T08:56:10.948Z,17.43
2019-04-05T09:01:12.059Z,17.43
2019-04-05T09:06:13.251Z,17.60
2019-04-05T09:11:14.359Z,16.50
2019-04-05T09:16:15.452Z,17.43
2019-04-05T09:21:17.910Z,20.07
2019-04-05T09:26:19.073Z,17.73
2019-04-05T09:31:20.177Z,18.40
2019-04-05T09:36:21.256Z,18.67
2019-04-05T09:41:22.357Z,16.40
2019-04-05T09:46:23.473Z,20.07
2019-04-05T09:51:24.666Z,17.80
2019-04-05T09:56:25.862Z,18.97
2019-04-05T10:01:26.952Z,16.50
2019-04-05T10:06:28.065Z,17.57
2019-04-05T10:11:29.134Z,19.23
2019-04-05T10:16:30.231Z,16.60
2019-04-05T10:21:31.355Z,17.67
2019-04-05T10:26:32.447Z,21.23
2019-04-05T10:31:33.561Z,15.87
2019-04-05T10:36:34.657Z,15.57
2019-04-05T10:41:35.851Z,15.67
2019-04-05T10:46:37.043Z,15.93
2019-04-05T10:51:38.141Z,16.40
2019-04-05T10:56:39.588Z,18.13
2019-04-05T11:01:40.697Z,18.53
2019-04-05T11:06:41.823Z,16.20
2019-04-05T11:11:42.924Z,17.60
2019-04-05T11:16:44.020Z,16.00
2019-04-05T11:21:47.891Z,17.30
2019-04-05T11:26:48.144Z,16.67
2019-04-05T11:31:56.865Z,16.33
2019-04-05T11:36:53.583Z,16.10
2019-04-05T11:41:56.971Z,14.70
2019-04-05T11:46:58.165Z,16.10
2019-04-05T11:51:59.274Z,13.80
2019-04-05T11:57:00.379Z,12.40
2019-04-05T12:02:06.488Z,13.97
2019-04-05T12:07:07.615Z,14.20
2019-04-05T12:12:08.744Z,14.37
2019-04-05T12:17:09.898Z,11.77
2019-04-05T12:22:11.748Z,13.40
2019-04-05T12:27:12.937Z,19.80
2019-04-05T12:32:17.961Z,15.97
2019-04-05T12:37:18.028Z,15.47
2019-04-05T12:42:19.106Z,16.13
2019-04-05T12:47:20.311Z,13.93
2019-04-05T12:52:23.244Z,12.07
2019-04-05T12:57:25.723Z,11.47
2019-04-05T13:02:33.441Z,9.93
2019-04-05T13:07:30.693Z,11.23
2019-04-05T13:12:31.897Z,14.53
2019-04-05T13:17:33.267Z,12.67
2019-04-05T13:22:34.388Z,12.10
2019-04-05T13:27:35.502Z,12.47
2019-04-05T13:32:36.695Z,15.40
2019-04-05T13:37:37.891Z,15.40
2019-04-05T13:42:38.991Z,10.33
2019-04-05T13:47:40.103Z,10.87
2019-04-05T13:52:42.169Z,10.63
2019-04-05T13:57:43.546Z,10.17
2019-04-05T14:02:44.640Z,9.63
2019-04-05T14:07:45.747Z,10.43
2019-04-05T14:12:47.724Z,9.87
2019-04-05T14:17:49.297Z,10.13
2019-04-05T14:22:52.252Z,11.87
2019-04-05T14:27:53.579Z,10.40
2019-04-05T14:32:55.689Z,10.43
2019-04-05T14:37:57.095Z,11.87
2019-04-05T14:42:58.188Z,9.83
2019-04-05T14:47:59.288Z,9.07
2019-04-05T14:53:01.742Z,8.57
2019-04-05T14:58:06.092Z,10.70
2019-04-05T15:03:06.440Z,9.73
2019-04-05T15:08:07.558Z,11.23
2019-04-05T15:13:08.874Z,11.03
2019-04-05T15:18:10.011Z,9.33
2019-04-05T15:23:13.853Z,9.40
2019-04-05T15:28:14.157Z,12.50
2019-04-05T15:33:15.348Z,12.53
2019-04-05T15:38:16.449Z,14.37
2019-04-05T15:43:17.559Z,11.73
2019-04-05T15:48:20.486Z,10.87
2019-04-05T15:53:21.802Z,11.67
2019-04-05T15:58:22.893Z,10.33
2019-04-05T16:03:23.994Z,11.57
2019-04-05T16:08:25.211Z,12.80
2019-04-05T16:13:26.424Z,12.33
2019-04-05T16:18:27.561Z,13.63
2019-04-05T16:23:28.757Z,15.27
2019-04-05T16:28:29.859Z,13.23
2019-04-05T16:33:30.948Z,13.00
2019-04-05T16:38:32.065Z,14.27
2019-04-05T16:48:38.257Z,12.30
2019-04-05T16:53:41.310Z,13.93
2019-04-05T16:58:42.434Z,13.83
2019-04-05T17:03:43.545Z,12.30
2019-04-05T17:08:45.551Z,12.23
2019-04-05T17:13:46.890Z,10.73
2019-04-05T17:18:48.017Z,11.83
2019-04-05T17:23:49.132Z,10.93
2019-04-05T17:28:50.331Z,10.90
2019-04-05T17:33:51.496Z,12.60
2019-04-05T17:38:52.599Z,14.90
2019-04-05T17:43:53.702Z,14.40
2019-04-05T17:48:54.848Z,11.90
2019-04-05T17:53:56.057Z,12.43
2019-04-05T17:58:57.326Z,12.63
2019-04-05T18:03:58.657Z,14.93
2019-04-05T18:08:59.777Z,15.73
2019-04-05T18:14:01.002Z,22.33
2019-04-05T18:19:02.117Z,18.13
2019-04-05T18:24:03.440Z,19.27
2019-04-05T18:29:04.649Z,19.63
2019-04-05T18:34:05.853Z,18.43
2019-04-05T18:39:07.164Z,17.67
2019-04-05T18:44:08.287Z,23.50
2019-04-05T18:49:11.121Z,19.63
2019-04-05T18:54:12.655Z,19.10
2019-04-05T18:59:15.137Z,17.13
2019-04-05T19:04:16.294Z,19.03
2019-04-05T19:09:17.731Z,19.47
2019-04-05T19:14:18.847Z,20.40
2019-04-05T19:19:20.001Z,16.63
2019-04-05T19:24:21.218Z,19.57
2019-04-05T19:29:22.423Z,22.43
2019-04-05T19:49:33.053Z,23.83
2019-04-05T19:54:34.194Z,21.87
2019-04-05T19:59:35.349Z,20.67
2019-04-05T20:04:36.480Z,17.27
2019-04-05T20:09:37.747Z,27.53
2019-04-05T20:14:38.896Z,29.40
2019-04-05T20:19:40.164Z,28.30
2019-04-05T20:24:41.379Z,35.23
2019-04-05T20:29:42.483Z,29.50
2019-04-05T20:34:43.774Z,27.40
2019-04-05T20:39:44.872Z,25.47
2019-04-05T20:44:46.080Z,22.87
2019-04-05T20:49:47.215Z,22.63
2019-04-05T20:54:48.344Z,28.37
2019-04-05T20:59:49.482Z,27.67
2019-04-05T21:04:50.579Z,23.73
2019-04-05T21:09:51.753Z,18.73
2019-04-05T21:14:52.988Z,21.00
2019-04-05T21:19:54.112Z,23.23
2019-04-05T21:24:55.215Z,25.53
2019-04-05T21:29:56.346Z,27.17
2019-04-05T21:34:57.439Z,36.27
2019-04-05T21:39:58.560Z,27.07
2019-04-05T21:44:59.657Z,25.80
2019-04-05T21:50:00.881Z,26.07
2019-04-05T21:55:04.472Z,24.70
2019-04-05T22:00:21.739Z,25.17
2019-04-05T22:05:22.829Z,29.70
2019-04-05T22:10:23.929Z,29.23
2019-04-05T22:15:25.064Z,28.10
2019-04-05T22:20:26.166Z,30.23
2019-04-05T22:25:27.270Z,28.33
2019-04-05T22:30:28.385Z,32.63
2019-04-05T22:35:29.492Z,29.67
2019-04-05T22:40:30.780Z,32.83
2019-04-05T22:45:31.878Z,36.23
2019-04-05T22:50:33.009Z,34.20
2019-04-05T22:55:34.291Z,30.40
2019-04-05T23:00:36.489Z,35.40
2019-04-05T23:05:37.575Z,35.47
2019-04-05T23:10:38.672Z,35.37
2019-04-05T23:15:39.791Z,36.47
2019-04-05T23:20:41.216Z,35.47
2019-04-05T23:25:42.308Z,36.43
2019-04-05T23:30:43.515Z,36.80
2019-04-05T23:35:44.612Z,33.50
2019-04-05T23:40:45.707Z,36.43
2019-04-05T23:45:46.816Z,38.93
2019-04-05T23:50:47.932Z,35.00
2019-04-05T23:55:49.224Z,34.83
